sensor_id;sensor_type;location;lat;lon;timestamp;P1;durP1;ratioP1;P2;durP2;ratioP2
9364;SDS011;4722;49.340;9.800;2023-08-21T00:01:15;7.70;;;4.05;;
9364;SDS011;4722;49.340;9.800;2023-08-21T00:03:41;6.30;;;3.97;;
9364;SDS011;4722;49.340;9.800;2023-08-21T00:06:07;8.13;;;4.30;;
9364;SDS011;4722;49.340;9.800;2023-08-21T00:08:33;8.73;;;4.15;;
9364;SDS011;4722;49.340;9.800;2023-08-21T00:10:59;6.68;;;3.97;;
9364;SDS011;4722;49.340;9.800;2023-08-21T00:13:25;6.75;;;4.25;;
9364;SDS011;4722;49.340;9.800;2023-08-21T00:15:51;6.53;;;3.78;;
9364;SDS011;4722;49.340;9.800;2023-08-21T00:18:17;8.57;;;4.47;;
9364;SDS011;4722;49.340;9.800;2023-08-21T00:20:43;7.47;;;4.30;;
9364;SDS011;4722;49.340;9.800;2023-08-21T00:23:09;6.35;;;4.18;;
9364;SDS011;4722;49.340;9.800;2023-08-21T00:25:35;9.38;;;4.35;;
9364;SDS011;4722;49.340;9.800;2023-08-21T00:28:01;9.43;;;4.15;;
9364;SDS011;4722;49.340;9.800;2023-08-21T00:30:27;5.95;;;3.92;;
9364;SDS011;4722;49.340;9.800;2023-08-21T00:32:53;7.57;;;4.00;;
9364;SDS011;4722;49.340;9.800;2023-08-21T00:35:19;6.85;;;3.83;;
9364;SDS011;4722;49.340;9.800;2023-08-21T00:37:45;6.45;;;4.13;;
9364;SDS011;4722;49.340;9.800;2023-08-21T00:40:13;8.55;;;4.00;;
9364;SDS011;4722;49.340;9.800;2023-08-21T00:42:38;10.40;;;3.95;;
9364;SDS011;4722;49.340;9.800;2023-08-21T00:45:05;8.45;;;4.93;;
9364;SDS011;4722;49.340;9.800;2023-08-21T00:47:33;8.07;;;4.10;;
9364;SDS011;4722;49.340;9.800;2023-08-21T00:49:59;8.32;;;4.20;;
9364;SDS011;4722;49.340;9.800;2023-08-21T00:52:25;8.32;;;4.47;;
9364;SDS011;4722;49.340;9.800;2023-08-21T00:54:51;7.93;;;4.18;;
9364;SDS011;4722;49.340;9.800;2023-08-21T00:57:17;5.72;;;3.85;;
9364;SDS011;4722;49.340;9.800;2023-08-21T00:59:43;6.78;;;3.58;;
9364;SDS011;4722;49.340;9.800;2023-08-21T01:02:09;5.53;;;3.95;;
9364;SDS011;4722;49.340;9.800;2023-08-21T01:04:36;9.13;;;4.38;;
9364;SDS011;4722;49.340;9.800;2023-08-21T01:07:02;5.82;;;4.15;;
9364;SDS011;4722;49.340;9.800;2023-08-21T01:09:36;8.00;;;4.53;;
9364;SDS011;4722;49.340;9.800;2023-08-21T01:12:11;9.25;;;5.35;;
9364;SDS011;4722;49.340;9.800;2023-08-21T01:14:49;9.23;;;4.38;;
9364;SDS011;4722;49.340;9.800;2023-08-21T01:17:23;10.00;;;3.97;;
9364;SDS011;4722;49.340;9.800;2023-08-21T01:19:50;11.07;;;4.35;;
9364;SDS011;4722;49.340;9.800;2023-08-21T01:22:17;7.68;;;4.50;;
9364;SDS011;4722;49.340;9.800;2023-08-21T01:24:43;7.20;;;4.30;;
9364;SDS011;4722;49.340;9.800;2023-08-21T01:27:09;8.75;;;4.45;;
9364;SDS011;4722;49.340;9.800;2023-08-21T01:29:37;6.82;;;3.63;;
9364;SDS011;4722;49.340;9.800;2023-08-21T01:34:29;6.00;;;3.20;;
9364;SDS011;4722;49.340;9.800;2023-08-21T01:36:58;13.00;;;4.35;;
9364;SDS011;4722;49.340;9.800;2023-08-21T01:39:25;6.10;;;3.83;;
9364;SDS011;4722;49.340;9.800;2023-08-21T01:41:51;7.10;;;4.05;;
9364;SDS011;4722;49.340;9.800;2023-08-21T01:44:17;8.63;;;3.70;;
9364;SDS011;4722;49.340;9.800;2023-08-21T01:46:43;5.72;;;3.80;;
9364;SDS011;4722;49.340;9.800;2023-08-21T01:49:09;7.20;;;3.67;;
9364;SDS011;4722;49.340;9.800;2023-08-21T01:51:35;7.32;;;4.03;;
9364;SDS011;4722;49.340;9.800;2023-08-21T01:54:01;6.65;;;4.75;;
9364;SDS011;4722;49.340;9.800;2023-08-21T01:56:27;8.40;;;4.53;;
9364;SDS011;4722;49.340;9.800;2023-08-21T01:58:53;6.20;;;4.07;;
9364;SDS011;4722;49.340;9.800;2023-08-21T02:01:19;7.38;;;5.13;;
9364;SDS011;4722;49.340;9.800;2023-08-21T02:03:45;8.27;;;4.70;;
9364;SDS011;4722;49.340;9.800;2023-08-21T02:06:11;8.75;;;4.38;;
9364;SDS011;4722;49.340;9.800;2023-08-21T02:08:39;9.48;;;5.03;;
9364;SDS011;4722;49.340;9.800;2023-08-21T02:11:05;7.47;;;4.57;;
9364;SDS011;4722;49.340;9.800;2023-08-21T02:13:31;8.15;;;4.63;;
9364;SDS011;4722;49.340;9.800;2023-08-21T02:15:57;11.30;;;5.03;;
9364;SDS011;4722;49.340;9.800;2023-08-21T02:18:23;7.85;;;4.47;;
9364;SDS011;4722;49.340;9.800;2023-08-21T02:20:49;7.00;;;4.28;;
9364;SDS011;4722;49.340;9.800;2023-08-21T02:23:16;8.50;;;4.32;;
9364;SDS011;4722;49.340;9.800;2023-08-21T02:25:42;11.60;;;5.00;;
9364;SDS011;4722;49.340;9.800;2023-08-21T02:28:08;8.75;;;4.32;;
9364;SDS011;4722;49.340;9.800;2023-08-21T02:30:34;7.65;;;3.88;;
9364;SDS011;4722;49.340;9.800;2023-08-21T02:33:00;6.82;;;4.10;;
9364;SDS011;4722;49.340;9.800;2023-08-21T02:35:25;12.90;;;4.50;;
9364;SDS011;4722;49.340;9.800;2023-08-21T02:37:51;7.75;;;3.65;;
9364;SDS011;4722;49.340;9.800;2023-08-21T02:40:17;7.75;;;3.92;;
9364;SDS011;4722;49.340;9.800;2023-08-21T02:42:43;7.15;;;4.15;;
9364;SDS011;4722;49.340;9.800;2023-08-21T02:45:09;6.57;;;3.80;;
9364;SDS011;4722;49.340;9.800;2023-08-21T02:47:36;7.05;;;4.25;;
9364;SDS011;4722;49.340;9.800;2023-08-21T02:50:03;9.23;;;4.35;;
9364;SDS011;4722;49.340;9.800;2023-08-21T02:52:29;9.32;;;4.40;;
9364;SDS011;4722;49.340;9.800;2023-08-21T02:54:56;8.90;;;3.97;;
9364;SDS011;4722;49.340;9.800;2023-08-21T02:57:22;7.53;;;4.20;;
9364;SDS011;4722;49.340;9.800;2023-08-21T02:59:49;7.38;;;3.95;;
9364;SDS011;4722;49.340;9.800;2023-08-21T03:02:15;7.47;;;4.20;;
9364;SDS011;4722;49.340;9.800;2023-08-21T03:04:41;11.52;;;4.90;;
9364;SDS011;4722;49.340;9.800;2023-08-21T03:07:07;10.07;;;4.45;;
9364;SDS011;4722;49.340;9.800;2023-08-21T03:09:33;7.97;;;4.40;;
9364;SDS011;4722;49.340;9.800;2023-08-21T03:11:59;9.50;;;4.38;;
9364;SDS011;4722;49.340;9.800;2023-08-21T03:14:26;9.63;;;4.35;;
9364;SDS011;4722;49.340;9.800;2023-08-21T03:16:52;7.70;;;3.33;;
9364;SDS011;4722;49.340;9.800;2023-08-21T03:19:18;8.95;;;4.40;;
9364;SDS011;4722;49.340;9.800;2023-08-21T03:21:45;6.63;;;4.07;;
9364;SDS011;4722;49.340;9.800;2023-08-21T03:24:11;8.07;;;4.13;;
9364;SDS011;4722;49.340;9.800;2023-08-21T03:26:37;13.55;;;4.50;;
9364;SDS011;4722;49.340;9.800;2023-08-21T03:29:03;5.80;;;3.72;;
9364;SDS011;4722;49.340;9.800;2023-08-21T03:31:29;6.18;;;3.80;;
9364;SDS011;4722;49.340;9.800;2023-08-21T03:33:55;6.50;;;4.00;;
9364;SDS011;4722;49.340;9.800;2023-08-21T03:36:22;8.98;;;4.88;;
9364;SDS011;4722;49.340;9.800;2023-08-21T03:38:56;9.45;;;4.63;;
9364;SDS011;4722;49.340;9.800;2023-08-21T03:41:22;7.53;;;3.70;;
9364;SDS011;4722;49.340;9.800;2023-08-21T03:43:48;6.68;;;4.15;;
9364;SDS011;4722;49.340;9.800;2023-08-21T03:46:13;11.38;;;4.45;;
9364;SDS011;4722;49.340;9.800;2023-08-21T03:48:39;8.73;;;3.72;;
9364;SDS011;4722;49.340;9.800;2023-08-21T03:51:07;6.03;;;3.50;;
9364;SDS011;4722;49.340;9.800;2023-08-21T03:53:33;7.57;;;4.28;;
9364;SDS011;4722;49.340;9.800;2023-08-21T03:55:59;9.23;;;4.03;;
9364;SDS011;4722;49.340;9.800;2023-08-21T03:58:26;9.05;;;4.18;;
9364;SDS011;4722;49.340;9.800;2023-08-21T04:00:53;8.57;;;4.05;;
9364;SDS011;4722;49.340;9.800;2023-08-21T04:03:19;7.60;;;4.75;;
9364;SDS011;4722;49.340;9.800;2023-08-21T04:05:45;7.68;;;4.50;;
9364;SDS011;4722;49.340;9.800;2023-08-21T04:08:11;9.95;;;4.07;;
9364;SDS011;4722;49.340;9.800;2023-08-21T04:10:37;8.55;;;3.85;;
9364;SDS011;4722;49.340;9.800;2023-08-21T04:13:03;8.50;;;4.35;;
9364;SDS011;4722;49.340;9.800;2023-08-21T04:15:31;7.05;;;4.03;;
9364;SDS011;4722;49.340;9.800;2023-08-21T04:17:57;6.97;;;4.15;;
9364;SDS011;4722;49.340;9.800;2023-08-21T04:20:23;4.57;;;3.40;;
9364;SDS011;4722;49.340;9.800;2023-08-21T04:22:49;6.22;;;3.53;;
9364;SDS011;4722;49.340;9.800;2023-08-21T04:25:15;8.43;;;3.88;;
9364;SDS011;4722;49.340;9.800;2023-08-21T04:27:42;4.72;;;3.10;;
9364;SDS011;4722;49.340;9.800;2023-08-21T04:30:08;5.10;;;3.42;;
9364;SDS011;4722;49.340;9.800;2023-08-21T04:32:34;6.28;;;3.80;;
9364;SDS011;4722;49.340;9.800;2023-08-21T04:35:00;6.25;;;3.55;;
9364;SDS011;4722;49.340;9.800;2023-08-21T04:37:26;5.45;;;3.60;;
9364;SDS011;4722;49.340;9.800;2023-08-21T04:39:53;6.05;;;3.42;;
9364;SDS011;4722;49.340;9.800;2023-08-21T04:42:19;5.90;;;3.53;;
9364;SDS011;4722;49.340;9.800;2023-08-21T04:44:45;10.82;;;4.80;;
9364;SDS011;4722;49.340;9.800;2023-08-21T04:49:48;7.10;;;4.53;;
9364;SDS011;4722;49.340;9.800;2023-08-21T04:52:14;6.57;;;3.88;;
9364;SDS011;4722;49.340;9.800;2023-08-21T04:54:40;7.25;;;4.60;;
9364;SDS011;4722;49.340;9.800;2023-08-21T04:57:06;8.57;;;5.43;;
9364;SDS011;4722;49.340;9.800;2023-08-21T04:59:32;7.63;;;4.15;;
9364;SDS011;4722;49.340;9.800;2023-08-21T05:01:58;11.93;;;4.72;;
9364;SDS011;4722;49.340;9.800;2023-08-21T05:04:24;7.43;;;4.68;;
9364;SDS011;4722;49.340;9.800;2023-08-21T05:06:50;9.30;;;4.60;;
9364;SDS011;4722;49.340;9.800;2023-08-21T05:09:16;7.88;;;4.78;;
9364;SDS011;4722;49.340;9.800;2023-08-21T05:11:41;10.02;;;4.75;;
9364;SDS011;4722;49.340;9.800;2023-08-21T05:14:07;10.48;;;4.57;;
9364;SDS011;4722;49.340;9.800;2023-08-21T05:16:34;7.65;;;4.60;;
9364;SDS011;4722;49.340;9.800;2023-08-21T05:19:00;6.47;;;3.80;;
9364;SDS011;4722;49.340;9.800;2023-08-21T05:21:27;7.60;;;3.40;;
9364;SDS011;4722;49.340;9.800;2023-08-21T05:23:52;6.85;;;3.72;;
9364;SDS011;4722;49.340;9.800;2023-08-21T05:26:19;5.20;;;3.45;;
9364;SDS011;4722;49.340;9.800;2023-08-21T05:28:44;5.22;;;3.33;;
9364;SDS011;4722;49.340;9.800;2023-08-21T05:31:10;6.07;;;3.60;;
9364;SDS011;4722;49.340;9.800;2023-08-21T05:33:36;7.70;;;4.50;;
9364;SDS011;4722;49.340;9.800;2023-08-21T05:36:02;6.13;;;3.33;;
9364;SDS011;4722;49.340;9.800;2023-08-21T05:38:28;9.38;;;4.55;;
9364;SDS011;4722;49.340;9.800;2023-08-21T05:40:54;7.95;;;3.78;;
9364;SDS011;4722;49.340;9.800;2023-08-21T05:43:20;6.85;;;3.75;;
9364;SDS011;4722;49.340;9.800;2023-08-21T05:45:46;10.13;;;4.32;;
9364;SDS011;4722;49.340;9.800;2023-08-21T05:48:13;7.57;;;4.28;;
9364;SDS011;4722;49.340;9.800;2023-08-21T05:50:39;6.32;;;4.25;;
9364;SDS011;4722;49.340;9.800;2023-08-21T05:53:06;8.77;;;4.53;;
9364;SDS011;4722;49.340;9.800;2023-08-21T05:55:32;7.78;;;4.60;;
9364;SDS011;4722;49.340;9.800;2023-08-21T05:57:58;5.63;;;4.45;;
9364;SDS011;4722;49.340;9.800;2023-08-21T06:00:23;6.72;;;4.18;;
9364;SDS011;4722;49.340;9.800;2023-08-21T06:02:50;9.70;;;4.72;;
9364;SDS011;4722;49.340;9.800;2023-08-21T06:05:16;9.05;;;4.47;;
9364;SDS011;4722;49.340;9.800;2023-08-21T06:07:42;8.65;;;4.03;;
9364;SDS011;4722;49.340;9.800;2023-08-21T06:10:09;6.15;;;3.78;;
9364;SDS011;4722;49.340;9.800;2023-08-21T06:12:40;7.07;;;4.40;;
9364;SDS011;4722;49.340;9.800;2023-08-21T06:15:06;6.25;;;4.28;;
9364;SDS011;4722;49.340;9.800;2023-08-21T06:17:40;9.23;;;4.53;;
9364;SDS011;4722;49.340;9.800;2023-08-21T06:20:07;6.75;;;4.00;;
9364;SDS011;4722;49.340;9.800;2023-08-21T06:22:38;7.22;;;4.45;;
9364;SDS011;4722;49.340;9.800;2023-08-21T06:25:04;5.30;;;3.95;;
9364;SDS011;4722;49.340;9.800;2023-08-21T06:27:31;7.18;;;4.20;;
9364;SDS011;4722;49.340;9.800;2023-08-21T06:29:57;7.88;;;4.72;;
9364;SDS011;4722;49.340;9.800;2023-08-21T06:32:23;10.95;;;4.35;;
9364;SDS011;4722;49.340;9.800;2023-08-21T06:34:49;6.63;;;3.97;;
9364;SDS011;4722;49.340;9.800;2023-08-21T06:37:15;10.73;;;4.70;;
9364;SDS011;4722;49.340;9.800;2023-08-21T06:39:42;8.25;;;4.40;;
9364;SDS011;4722;49.340;9.800;2023-08-21T06:42:07;8.02;;;4.95;;
9364;SDS011;4722;49.340;9.800;2023-08-21T06:44:33;7.38;;;4.25;;
9364;SDS011;4722;49.340;9.800;2023-08-21T06:46:59;6.97;;;3.55;;
9364;SDS011;4722;49.340;9.800;2023-08-21T06:49:26;7.63;;;4.78;;
9364;SDS011;4722;49.340;9.800;2023-08-21T06:51:52;7.25;;;4.20;;
9364;SDS011;4722;49.340;9.800;2023-08-21T06:54:18;7.85;;;4.50;;
9364;SDS011;4722;49.340;9.800;2023-08-21T06:56:44;7.90;;;4.25;;
9364;SDS011;4722;49.340;9.800;2023-08-21T06:59:10;8.60;;;4.65;;
9364;SDS011;4722;49.340;9.800;2023-08-21T07:01:36;7.75;;;4.30;;
9364;SDS011;4722;49.340;9.800;2023-08-21T07:04:02;7.20;;;3.92;;
9364;SDS011;4722;49.340;9.800;2023-08-21T07:06:29;8.75;;;4.32;;
9364;SDS011;4722;49.340;9.800;2023-08-21T07:08:55;6.10;;;3.97;;
9364;SDS011;4722;49.340;9.800;2023-08-21T07:11:21;7.93;;;3.63;;
9364;SDS011;4722;49.340;9.800;2023-08-21T07:13:47;10.45;;;5.32;;
9364;SDS011;4722;49.340;9.800;2023-08-21T07:16:13;6.55;;;4.65;;
9364;SDS011;4722;49.340;9.800;2023-08-21T07:18:40;11.07;;;5.13;;
9364;SDS011;4722;49.340;9.800;2023-08-21T07:21:06;8.52;;;5.10;;
9364;SDS011;4722;49.340;9.800;2023-08-21T07:23:32;7.57;;;4.30;;
9364;SDS011;4722;49.340;9.800;2023-08-21T07:25:59;8.52;;;4.57;;
9364;SDS011;4722;49.340;9.800;2023-08-21T07:28:25;8.73;;;5.03;;
9364;SDS011;4722;49.340;9.800;2023-08-21T07:30:58;9.02;;;5.72;;
9364;SDS011;4722;49.340;9.800;2023-08-21T07:33:26;7.40;;;4.80;;
9364;SDS011;4722;49.340;9.800;2023-08-21T07:36:03;8.48;;;5.30;;
9364;SDS011;4722;49.340;9.800;2023-08-21T07:38:30;10.43;;;5.65;;
9364;SDS011;4722;49.340;9.800;2023-08-21T07:41:06;10.32;;;5.28;;
9364;SDS011;4722;49.340;9.800;2023-08-21T07:43:34;14.38;;;5.75;;
9364;SDS011;4722;49.340;9.800;2023-08-21T07:46:04;10.50;;;5.68;;
9364;SDS011;4722;49.340;9.800;2023-08-21T07:48:30;10.23;;;5.97;;
9364;SDS011;4722;49.340;9.800;2023-08-21T07:50:56;9.85;;;6.32;;
9364;SDS011;4722;49.340;9.800;2023-08-21T07:53:22;9.93;;;5.60;;
9364;SDS011;4722;49.340;9.800;2023-08-21T07:55:48;9.88;;;6.22;;
9364;SDS011;4722;49.340;9.800;2023-08-21T07:58:14;9.80;;;6.07;;
9364;SDS011;4722;49.340;9.800;2023-08-21T08:00:40;8.80;;;6.38;;
9364;SDS011;4722;49.340;9.800;2023-08-21T08:03:09;11.75;;;6.82;;
9364;SDS011;4722;49.340;9.800;2023-08-21T08:05:37;11.20;;;6.93;;
9364;SDS011;4722;49.340;9.800;2023-08-21T08:08:03;16.88;;;7.15;;
9364;SDS011;4722;49.340;9.800;2023-08-21T08:10:29;12.90;;;6.45;;
9364;SDS011;4722;49.340;9.800;2023-08-21T08:12:55;19.42;;;6.85;;
9364;SDS011;4722;49.340;9.800;2023-08-21T08:15:22;12.43;;;6.30;;
9364;SDS011;4722;49.340;9.800;2023-08-21T08:17:48;11.82;;;5.85;;
9364;SDS011;4722;49.340;9.800;2023-08-21T08:20:18;9.48;;;6.03;;
9364;SDS011;4722;49.340;9.800;2023-08-21T08:22:44;12.13;;;7.18;;
9364;SDS011;4722;49.340;9.800;2023-08-21T08:25:10;12.10;;;6.38;;
9364;SDS011;4722;49.340;9.800;2023-08-21T08:27:35;9.50;;;6.32;;
9364;SDS011;4722;49.340;9.800;2023-08-21T08:30:02;11.40;;;6.03;;
9364;SDS011;4722;49.340;9.800;2023-08-21T08:32:28;11.27;;;6.40;;
9364;SDS011;4722;49.340;9.800;2023-08-21T08:34:54;10.93;;;6.05;;
9364;SDS011;4722;49.340;9.800;2023-08-21T08:37:20;8.85;;;5.75;;
9364;SDS011;4722;49.340;9.800;2023-08-21T08:39:47;10.13;;;6.15;;
9364;SDS011;4722;49.340;9.800;2023-08-21T08:42:13;12.75;;;5.13;;
9364;SDS011;4722;49.340;9.800;2023-08-21T08:44:39;7.93;;;5.60;;
9364;SDS011;4722;49.340;9.800;2023-08-21T08:47:06;11.15;;;5.88;;
9364;SDS011;4722;49.340;9.800;2023-08-21T08:49:32;8.63;;;4.63;;
9364;SDS011;4722;49.340;9.800;2023-08-21T08:51:58;7.80;;;5.13;;
9364;SDS011;4722;49.340;9.800;2023-08-21T08:54:25;7.82;;;5.15;;
9364;SDS011;4722;49.340;9.800;2023-08-21T08:56:51;7.38;;;4.75;;
9364;SDS011;4722;49.340;9.800;2023-08-21T08:59:17;6.50;;;4.30;;
9364;SDS011;4722;49.340;9.800;2023-08-21T09:01:43;9.05;;;4.25;;
9364;SDS011;4722;49.340;9.800;2023-08-21T09:04:09;5.97;;;4.20;;
9364;SDS011;4722;49.340;9.800;2023-08-21T09:06:36;6.03;;;4.03;;
9364;SDS011;4722;49.340;9.800;2023-08-21T09:09:02;7.00;;;4.00;;
9364;SDS011;4722;49.340;9.800;2023-08-21T09:11:29;6.53;;;3.88;;
9364;SDS011;4722;49.340;9.800;2023-08-21T09:13:55;4.72;;;3.92;;
9364;SDS011;4722;49.340;9.800;2023-08-21T09:16:21;11.88;;;5.03;;
9364;SDS011;4722;49.340;9.800;2023-08-21T09:18:58;7.70;;;4.15;;
9364;SDS011;4722;49.340;9.800;2023-08-21T09:21:25;5.20;;;4.13;;
9364;SDS011;4722;49.340;9.800;2023-08-21T09:23:57;5.85;;;3.38;;
9364;SDS011;4722;49.340;9.800;2023-08-21T09:26:26;5.07;;;3.50;;
9364;SDS011;4722;49.340;9.800;2023-08-21T09:28:52;3.60;;;2.35;;
9364;SDS011;4722;49.340;9.800;2023-08-21T09:31:22;5.15;;;3.05;;
9364;SDS011;4722;49.340;9.800;2023-08-21T09:33:55;3.88;;;2.30;;
9364;SDS011;4722;49.340;9.800;2023-08-21T09:36:26;3.45;;;2.20;;
9364;SDS011;4722;49.340;9.800;2023-08-21T09:38:52;4.53;;;2.22;;
9364;SDS011;4722;49.340;9.800;2023-08-21T09:41:19;3.70;;;2.20;;
9364;SDS011;4722;49.340;9.800;2023-08-21T09:43:45;7.13;;;2.80;;
9364;SDS011;4722;49.340;9.800;2023-08-21T09:46:15;7.28;;;3.15;;
9364;SDS011;4722;49.340;9.800;2023-08-21T09:48:43;5.32;;;2.90;;
9364;SDS011;4722;49.340;9.800;2023-08-21T09:51:13;5.00;;;2.65;;
9364;SDS011;4722;49.340;9.800;2023-08-21T09:53:40;5.22;;;2.75;;
9364;SDS011;4722;49.340;9.800;2023-08-21T09:56:07;7.57;;;3.10;;
9364;SDS011;4722;49.340;9.800;2023-08-21T09:58:35;3.97;;;2.20;;
9364;SDS011;4722;49.340;9.800;2023-08-21T10:01:04;4.03;;;2.17;;
9364;SDS011;4722;49.340;9.800;2023-08-21T10:03:36;3.97;;;2.47;;
9364;SDS011;4722;49.340;9.800;2023-08-21T10:06:04;4.38;;;2.30;;
9364;SDS011;4722;49.340;9.800;2023-08-21T10:08:31;5.53;;;2.58;;
9364;SDS011;4722;49.340;9.800;2023-08-21T10:10:57;6.25;;;2.30;;
9364;SDS011;4722;49.340;9.800;2023-08-21T10:13:24;10.45;;;2.60;;
9364;SDS011;4722;49.340;9.800;2023-08-21T10:15:50;3.95;;;2.80;;
9364;SDS011;4722;49.340;9.800;2023-08-21T10:18:18;6.15;;;2.20;;
9364;SDS011;4722;49.340;9.800;2023-08-21T10:20:48;5.88;;;2.55;;
9364;SDS011;4722;49.340;9.800;2023-08-21T10:23:32;3.47;;;1.77;;
9364;SDS011;4722;49.340;9.800;2023-08-21T10:26:05;4.35;;;1.95;;
9364;SDS011;4722;49.340;9.800;2023-08-21T10:28:41;4.22;;;2.30;;
9364;SDS011;4722;49.340;9.800;2023-08-21T10:31:40;7.07;;;2.72;;
9364;SDS011;4722;49.340;9.800;2023-08-21T10:34:09;3.03;;;1.83;;
9364;SDS011;4722;49.340;9.800;2023-08-21T10:39:26;3.45;;;1.83;;
9364;SDS011;4722;49.340;9.800;2023-08-21T10:41:56;3.88;;;2.28;;
9364;SDS011;4722;49.340;9.800;2023-08-21T10:44:54;3.42;;;2.28;;
9364;SDS011;4722;49.340;9.800;2023-08-21T10:49:53;3.58;;;2.00;;
9364;SDS011;4722;49.340;9.800;2023-08-21T10:54:51;4.43;;;1.90;;
9364;SDS011;4722;49.340;9.800;2023-08-21T10:57:18;5.13;;;2.15;;
9364;SDS011;4722;49.340;9.800;2023-08-21T11:02:17;5.03;;;1.80;;
9364;SDS011;4722;49.340;9.800;2023-08-21T11:04:43;5.95;;;2.35;;
9364;SDS011;4722;49.340;9.800;2023-08-21T11:07:10;3.00;;;2.13;;
9364;SDS011;4722;49.340;9.800;2023-08-21T11:09:36;2.97;;;1.98;;
9364;SDS011;4722;49.340;9.800;2023-08-21T11:12:09;5.10;;;3.00;;
9364;SDS011;4722;49.340;9.800;2023-08-21T11:14:37;4.10;;;2.13;;
9364;SDS011;4722;49.340;9.800;2023-08-21T11:17:04;4.63;;;2.38;;
9364;SDS011;4722;49.340;9.800;2023-08-21T11:19:31;4.22;;;2.08;;
9364;SDS011;4722;49.340;9.800;2023-08-21T11:21:57;6.07;;;2.28;;
9364;SDS011;4722;49.340;9.800;2023-08-21T11:24:29;5.32;;;1.83;;
9364;SDS011;4722;49.340;9.800;2023-08-21T11:26:56;5.22;;;2.28;;
9364;SDS011;4722;49.340;9.800;2023-08-21T11:29:22;5.05;;;2.00;;
9364;SDS011;4722;49.340;9.800;2023-08-21T11:31:48;2.88;;;2.00;;
9364;SDS011;4722;49.340;9.800;2023-08-21T11:34:18;2.97;;;1.63;;
9364;SDS011;4722;49.340;9.800;2023-08-21T11:36:44;5.95;;;2.22;;
9364;SDS011;4722;49.340;9.800;2023-08-21T11:39:10;3.20;;;2.17;;
9364;SDS011;4722;49.340;9.800;2023-08-21T11:41:55;3.78;;;1.88;;
9364;SDS011;4722;49.340;9.800;2023-08-21T11:44:23;6.93;;;2.03;;
9364;SDS011;4722;49.340;9.800;2023-08-21T11:46:51;3.20;;;1.60;;
9364;SDS011;4722;49.340;9.800;2023-08-21T11:49:20;3.25;;;1.85;;
9364;SDS011;4722;49.340;9.800;2023-08-21T11:51:47;7.45;;;2.17;;
9364;SDS011;4722;49.340;9.800;2023-08-21T11:54:13;6.10;;;2.25;;
9364;SDS011;4722;49.340;9.800;2023-08-21T11:56:39;4.07;;;2.28;;
9364;SDS011;4722;49.340;9.800;2023-08-21T11:59:07;3.70;;;1.80;;
9364;SDS011;4722;49.340;9.800;2023-08-21T12:01:34;3.05;;;1.70;;
9364;SDS011;4722;49.340;9.800;2023-08-21T12:04:00;3.05;;;1.50;;
9364;SDS011;4722;49.340;9.800;2023-08-21T12:06:26;4.18;;;2.00;;
9364;SDS011;4722;49.340;9.800;2023-08-21T12:08:57;3.03;;;1.92;;
9364;SDS011;4722;49.340;9.800;2023-08-21T12:11:23;11.25;;;2.33;;
9364;SDS011;4722;49.340;9.800;2023-08-21T12:13:49;11.18;;;2.42;;
9364;SDS011;4722;49.340;9.800;2023-08-21T12:16:16;9.55;;;2.55;;
9364;SDS011;4722;49.340;9.800;2023-08-21T12:18:42;4.57;;;2.05;;
9364;SDS011;4722;49.340;9.800;2023-08-21T12:21:08;5.18;;;1.90;;
9364;SDS011;4722;49.340;9.800;2023-08-21T12:23:34;4.72;;;2.20;;
9364;SDS011;4722;49.340;9.800;2023-08-21T12:26:01;5.70;;;2.00;;
9364;SDS011;4722;49.340;9.800;2023-08-21T12:28:27;5.47;;;2.50;;
9364;SDS011;4722;49.340;9.800;2023-08-21T12:30:53;4.43;;;1.85;;
9364;SDS011;4722;49.340;9.800;2023-08-21T12:33:18;8.45;;;1.77;;
9364;SDS011;4722;49.340;9.800;2023-08-21T12:35:44;4.65;;;1.52;;
9364;SDS011;4722;49.340;9.800;2023-08-21T12:38:10;7.20;;;1.83;;
9364;SDS011;4722;49.340;9.800;2023-08-21T12:40:39;7.50;;;1.85;;
9364;SDS011;4722;49.340;9.800;2023-08-21T12:43:05;7.03;;;1.83;;
9364;SDS011;4722;49.340;9.800;2023-08-21T12:45:31;3.92;;;1.90;;
9364;SDS011;4722;49.340;9.800;2023-08-21T12:47:57;4.00;;;1.67;;
9364;SDS011;4722;49.340;9.800;2023-08-21T12:50:23;6.95;;;1.95;;
9364;SDS011;4722;49.340;9.800;2023-08-21T12:52:51;6.90;;;2.03;;
9364;SDS011;4722;49.340;9.800;2023-08-21T12:55:17;3.65;;;1.90;;
9364;SDS011;4722;49.340;9.800;2023-08-21T12:57:44;5.55;;;1.83;;
9364;SDS011;4722;49.340;9.800;2023-08-21T13:00:10;2.90;;;1.63;;
9364;SDS011;4722;49.340;9.800;2023-08-21T13:02:36;5.53;;;1.73;;
9364;SDS011;4722;49.340;9.800;2023-08-21T13:05:02;4.00;;;1.98;;
9364;SDS011;4722;49.340;9.800;2023-08-21T13:07:30;3.10;;;1.42;;
9364;SDS011;4722;49.340;9.800;2023-08-21T13:09:56;3.28;;;1.60;;
9364;SDS011;4722;49.340;9.800;2023-08-21T13:12:24;2.28;;;1.35;;
9364;SDS011;4722;49.340;9.800;2023-08-21T13:14:50;5.50;;;2.25;;
9364;SDS011;4722;49.340;9.800;2023-08-21T13:17:16;4.10;;;1.95;;
9364;SDS011;4722;49.340;9.800;2023-08-21T13:19:42;4.63;;;2.05;;
9364;SDS011;4722;49.340;9.800;2023-08-21T13:22:08;4.18;;;1.90;;
9364;SDS011;4722;49.340;9.800;2023-08-21T13:24:34;3.45;;;2.22;;
9364;SDS011;4722;49.340;9.800;2023-08-21T13:27:00;2.15;;;1.27;;
9364;SDS011;4722;49.340;9.800;2023-08-21T13:29:26;4.97;;;2.15;;
9364;SDS011;4722;49.340;9.800;2023-08-21T13:31:52;3.85;;;1.95;;
9364;SDS011;4722;49.340;9.800;2023-08-21T13:34:17;3.42;;;1.92;;
9364;SDS011;4722;49.340;9.800;2023-08-21T13:36:43;3.90;;;1.63;;
9364;SDS011;4722;49.340;9.800;2023-08-21T13:39:09;2.90;;;1.67;;
9364;SDS011;4722;49.340;9.800;2023-08-21T13:41:38;3.30;;;2.05;;
9364;SDS011;4722;49.340;9.800;2023-08-21T13:44:03;6.90;;;1.83;;
9364;SDS011;4722;49.340;9.800;2023-08-21T13:46:32;2.78;;;1.88;;
9364;SDS011;4722;49.340;9.800;2023-08-21T13:48:58;3.83;;;1.90;;
9364;SDS011;4722;49.340;9.800;2023-08-21T13:51:23;4.75;;;2.10;;
9364;SDS011;4722;49.340;9.800;2023-08-21T13:53:49;2.95;;;1.73;;
9364;SDS011;4722;49.340;9.800;2023-08-21T13:56:16;3.13;;;1.60;;
9364;SDS011;4722;49.340;9.800;2023-08-21T13:58:42;4.25;;;1.90;;
9364;SDS011;4722;49.340;9.800;2023-08-21T14:01:08;3.63;;;2.08;;
9364;SDS011;4722;49.340;9.800;2023-08-21T14:03:34;4.97;;;1.73;;
9364;SDS011;4722;49.340;9.800;2023-08-21T14:06:01;3.08;;;1.65;;
9364;SDS011;4722;49.340;9.800;2023-08-21T14:08:27;3.78;;;2.10;;
9364;SDS011;4722;49.340;9.800;2023-08-21T14:10:54;2.95;;;1.40;;
9364;SDS011;4722;49.340;9.800;2023-08-21T14:13:20;3.53;;;1.70;;
9364;SDS011;4722;49.340;9.800;2023-08-21T14:15:46;2.70;;;1.60;;
9364;SDS011;4722;49.340;9.800;2023-08-21T14:18:12;4.05;;;1.90;;
9364;SDS011;4722;49.340;9.800;2023-08-21T14:20:38;4.55;;;1.55;;
9364;SDS011;4722;49.340;9.800;2023-08-21T14:23:04;3.72;;;1.88;;
9364;SDS011;4722;49.340;9.800;2023-08-21T14:25:29;3.92;;;1.85;;
9364;SDS011;4722;49.340;9.800;2023-08-21T14:27:56;3.28;;;1.77;;
9364;SDS011;4722;49.340;9.800;2023-08-21T14:30:22;4.95;;;1.90;;
9364;SDS011;4722;49.340;9.800;2023-08-21T14:32:48;3.45;;;1.70;;
9364;SDS011;4722;49.340;9.800;2023-08-21T14:35:14;2.45;;;1.60;;
9364;SDS011;4722;49.340;9.800;2023-08-21T14:37:40;2.97;;;1.67;;
9364;SDS011;4722;49.340;9.800;2023-08-21T14:40:06;2.67;;;1.50;;
9364;SDS011;4722;49.340;9.800;2023-08-21T14:42:35;3.97;;;2.00;;
9364;SDS011;4722;49.340;9.800;2023-08-21T14:45:01;4.65;;;1.52;;
9364;SDS011;4722;49.340;9.800;2023-08-21T14:47:28;4.93;;;1.55;;
9364;SDS011;4722;49.340;9.800;2023-08-21T14:49:53;3.13;;;1.65;;
9364;SDS011;4722;49.340;9.800;2023-08-21T14:52:20;3.83;;;1.80;;
9364;SDS011;4722;49.340;9.800;2023-08-21T14:54:47;4.43;;;1.38;;
9364;SDS011;4722;49.340;9.800;2023-08-21T14:57:15;3.67;;;1.95;;
9364;SDS011;4722;49.340;9.800;2023-08-21T14:59:41;3.28;;;1.50;;
9364;SDS011;4722;49.340;9.800;2023-08-21T15:02:07;2.80;;;1.63;;
9364;SDS011;4722;49.340;9.800;2023-08-21T15:04:33;4.43;;;1.88;;
9364;SDS011;4722;49.340;9.800;2023-08-21T15:06:59;3.40;;;1.65;;
9364;SDS011;4722;49.340;9.800;2023-08-21T15:09:24;6.20;;;1.83;;
9364;SDS011;4722;49.340;9.800;2023-08-21T15:11:50;4.65;;;1.63;;
9364;SDS011;4722;49.340;9.800;2023-08-21T15:14:16;3.83;;;1.75;;
9364;SDS011;4722;49.340;9.800;2023-08-21T15:16:42;4.13;;;2.00;;
9364;SDS011;4722;49.340;9.800;2023-08-21T15:19:08;4.80;;;1.98;;
9364;SDS011;4722;49.340;9.800;2023-08-21T15:21:34;2.85;;;1.60;;
9364;SDS011;4722;49.340;9.800;2023-08-21T15:24:00;2.83;;;2.00;;
9364;SDS011;4722;49.340;9.800;2023-08-21T15:26:26;3.67;;;1.92;;
9364;SDS011;4722;49.340;9.800;2023-08-21T15:28:52;2.75;;;1.45;;